sensor_id;sensor_type;location;lat;lon;timestamp;pressure;altitude;pressure_sealevel;temperature;humidity
56821;BME280;42702;50.178;20.992;2022-11-11T00:03:00;100713.44;;;7.99;85.41
56821;BME280;42702;50.178;20.992;2022-11-11T00:05:47;100717.52;;;7.96;85.71
56821;BME280;42702;50.178;20.992;2022-11-11T00:08:34;100725.13;;;7.95;85.76
56821;BME280;42702;50.178;20.992;2022-11-11T00:11:21;100726.91;;;7.91;85.83
56821;BME280;42702;50.178;20.992;2022-11-11T00:14:08;100732.96;;;7.90;85.70
56821;BME280;42702;50.178;20.992;2022-11-11T00:16:55;100739.45;;;7.93;85.49
56821;BME280;42702;50.178;20.992;2022-11-11T00:20:00;100740.63;;;7.91;85.63
56821;BME280;42702;50.178;20.992;2022-11-11T00:23:19;100747.15;;;7.89;85.73
56821;BME280;42702;50.178;20.992;2022-11-11T00:26:25;100743.28;;;7.87;85.74
56821;BME280;42702;50.178;20.992;2022-11-11T00:29:25;100740.86;;;7.87;85.45
56821;BME280;42702;50.178;20.992;2022-11-11T00:32:13;100744.20;;;7.88;85.18
56821;BME280;42702;50.178;20.992;2022-11-11T00:35:09;100743.20;;;7.84;85.44
56821;BME280;42702;50.178;20.992;2022-11-11T00:38:15;100747.21;;;7.79;85.19
56821;BME280;42702;50.178;20.992;2022-11-11T00:41:22;100738.64;;;7.76;85.53
56821;BME280;42702;50.178;20.992;2022-11-11T00:44:10;100740.52;;;7.75;85.00
56821;BME280;42702;50.178;20.992;2022-11-11T00:46:57;100741.88;;;7.80;85.04
56821;BME280;42702;50.178;20.992;2022-11-11T00:50:04;100742.67;;;7.78;85.18
56821;BME280;42702;50.178;20.992;2022-11-11T00:53:22;100739.79;;;7.74;85.29
56821;BME280;42702;50.178;20.992;2022-11-11T00:56:13;100732.24;;;7.71;85.03
56821;BME280;42702;50.178;20.992;2022-11-11T00:58:59;100732.71;;;7.69;85.07
56821;BME280;42702;50.178;20.992;2022-11-11T01:01:46;100737.38;;;7.75;85.08
56821;BME280;42702;50.178;20.992;2022-11-11T01:04:34;100739.67;;;7.76;85.16
56821;BME280;42702;50.178;20.992;2022-11-11T01:07:21;100744.52;;;7.75;85.24
56821;BME280;42702;50.178;20.992;2022-11-11T01:10:09;100737.27;;;7.71;84.70
56821;BME280;42702;50.178;20.992;2022-11-11T01:12:56;100732.77;;;7.65;84.77
56821;BME280;42702;50.178;20.992;2022-11-11T01:16:03;100733.11;;;7.66;84.83
56821;BME280;42702;50.178;20.992;2022-11-11T01:18:51;100725.95;;;7.69;84.45
56821;BME280;42702;50.178;20.992;2022-11-11T01:21:39;100723.20;;;7.64;84.74
56821;BME280;42702;50.178;20.992;2022-11-11T01:24:26;100727.73;;;7.59;84.87
56821;BME280;42702;50.178;20.992;2022-11-11T01:27:13;100729.05;;;7.57;84.61
56821;BME280;42702;50.178;20.992;2022-11-11T01:30:00;100729.30;;;7.60;84.77
56821;BME280;42702;50.178;20.992;2022-11-11T01:32:47;100730.63;;;7.63;84.46
56821;BME280;42702;50.178;20.992;2022-11-11T01:35:37;100739.42;;;7.62;84.54
56821;BME280;42702;50.178;20.992;2022-11-11T01:38:25;100738.41;;;7.63;84.30
56821;BME280;42702;50.178;20.992;2022-11-11T01:41:15;100737.52;;;7.62;84.41
56821;BME280;42702;50.178;20.992;2022-11-11T01:44:42;100736.10;;;7.56;84.20
56821;BME280;42702;50.178;20.992;2022-11-11T01:47:30;100733.33;;;7.55;84.15
56821;BME280;42702;50.178;20.992;2022-11-11T01:50:57;100730.42;;;7.51;84.30
56821;BME280;42702;50.178;20.992;2022-11-11T01:53:46;100732.63;;;7.49;84.17
56821;BME280;42702;50.178;20.992;2022-11-11T01:56:36;100734.77;;;7.45;84.44
56821;BME280;42702;50.178;20.992;2022-11-11T01:59:25;100731.38;;;7.42;84.44
56821;BME280;42702;50.178;20.992;2022-11-11T02:02:20;100736.57;;;7.41;84.36
56821;BME280;42702;50.178;20.992;2022-11-11T02:05:10;100737.16;;;7.44;84.15
56821;BME280;42702;50.178;20.992;2022-11-11T02:08:20;100744.64;;;7.39;83.96
56821;BME280;42702;50.178;20.992;2022-11-11T02:11:22;100746.86;;;7.38;84.10
56821;BME280;42702;50.178;20.992;2022-11-11T02:14:29;100742.95;;;7.35;84.07
56821;BME280;42702;50.178;20.992;2022-11-11T02:17:24;100744.00;;;7.40;84.08
56821;BME280;42702;50.178;20.992;2022-11-11T02:20:14;100749.11;;;7.38;84.14
56821;BME280;42702;50.178;20.992;2022-11-11T02:23:17;100749.03;;;7.35;84.22
56821;BME280;42702;50.178;20.992;2022-11-11T02:26:09;100749.37;;;7.35;84.16
56821;BME280;42702;50.178;20.992;2022-11-11T02:28:58;100745.20;;;7.35;84.59
56821;BME280;42702;50.178;20.992;2022-11-11T02:31:45;100744.85;;;7.35;83.98
56821;BME280;42702;50.178;20.992;2022-11-11T02:34:32;100751.31;;;7.36;83.89
56821;BME280;42702;50.178;20.992;2022-11-11T02:37:23;100754.67;;;7.32;83.78
56821;BME280;42702;50.178;20.992;2022-11-11T02:40:37;100756.73;;;7.26;84.22
56821;BME280;42702;50.178;20.992;2022-11-11T02:43:22;100761.60;;;7.21;84.12
56821;BME280;42702;50.178;20.992;2022-11-11T02:46:10;100756.91;;;7.21;84.40
56821;BME280;42702;50.178;20.992;2022-11-11T02:48:57;100759.05;;;7.23;84.03
56821;BME280;42702;50.178;20.992;2022-11-11T02:51:44;100759.91;;;7.28;84.13
56821;BME280;42702;50.178;20.992;2022-11-11T02:54:33;100761.85;;;7.29;83.95
56821;BME280;42702;50.178;20.992;2022-11-11T02:57:20;100762.58;;;7.30;84.37
56821;BME280;42702;50.178;20.992;2022-11-11T03:00:07;100770.40;;;7.31;84.06
56821;BME280;42702;50.178;20.992;2022-11-11T03:02:55;100770.70;;;7.29;84.29
56821;BME280;42702;50.178;20.992;2022-11-11T03:05:42;100770.41;;;7.32;84.07
56821;BME280;42702;50.178;20.992;2022-11-11T03:08:29;100772.86;;;7.37;83.89
56821;BME280;42702;50.178;20.992;2022-11-11T03:11:16;100777.09;;;7.34;83.99
56821;BME280;42702;50.178;20.992;2022-11-11T03:14:13;100776.16;;;7.32;84.03
56821;BME280;42702;50.178;20.992;2022-11-11T03:17:00;100775.55;;;7.29;84.34
56821;BME280;42702;50.178;20.992;2022-11-11T03:20:08;100773.52;;;7.25;84.24
56821;BME280;42702;50.178;20.992;2022-11-11T03:23:14;100771.40;;;7.29;83.70
56821;BME280;42702;50.178;20.992;2022-11-11T03:26:02;100769.93;;;7.33;84.06
56821;BME280;42702;50.178;20.992;2022-11-11T03:28:48;100771.71;;;7.34;84.15
56821;BME280;42702;50.178;20.992;2022-11-11T03:31:35;100770.00;;;7.34;83.99
56821;BME280;42702;50.178;20.992;2022-11-11T03:34:23;100771.44;;;7.36;84.17
56821;BME280;42702;50.178;20.992;2022-11-11T03:37:10;100773.64;;;7.40;83.86
56821;BME280;42702;50.178;20.992;2022-11-11T03:40:16;100766.51;;;7.45;83.68
56821;BME280;42702;50.178;20.992;2022-11-11T03:43:03;100769.14;;;7.46;83.77
56821;BME280;42702;50.178;20.992;2022-11-11T03:45:53;100770.36;;;7.46;83.62
56821;BME280;42702;50.178;20.992;2022-11-11T03:48:40;100770.90;;;7.47;83.70
56821;BME280;42702;50.178;20.992;2022-11-11T03:51:27;100767.98;;;7.48;84.18
56821;BME280;42702;50.178;20.992;2022-11-11T03:54:14;100765.71;;;7.53;83.78
56821;BME280;42702;50.178;20.992;2022-11-11T03:57:01;100771.61;;;7.59;83.46
56821;BME280;42702;50.178;20.992;2022-11-11T04:00:08;100771.73;;;7.57;83.31
56821;BME280;42702;50.178;20.992;2022-11-11T04:03:06;100775.27;;;7.59;83.32
56821;BME280;42702;50.178;20.992;2022-11-11T04:06:12;100781.94;;;7.56;83.53
56821;BME280;42702;50.178;20.992;2022-11-11T04:09:18;100774.08;;;7.54;83.17
56821;BME280;42702;50.178;20.992;2022-11-11T04:12:23;100769.27;;;7.56;83.24
56821;BME280;42702;50.178;20.992;2022-11-11T04:15:12;100774.48;;;7.56;82.90
56821;BME280;42702;50.178;20.992;2022-11-11T04:18:17;100775.81;;;7.55;82.99
56821;BME280;42702;50.178;20.992;2022-11-11T04:21:24;100774.75;;;7.48;83.51
56821;BME280;42702;50.178;20.992;2022-11-11T04:24:30;100779.42;;;7.48;83.46
56821;BME280;42702;50.178;20.992;2022-11-11T04:27:36;100775.83;;;7.49;83.16
56821;BME280;42702;50.178;20.992;2022-11-11T04:30:22;100777.16;;;7.53;83.47
56821;BME280;42702;50.178;20.992;2022-11-11T04:33:09;100777.83;;;7.52;83.40
56821;BME280;42702;50.178;20.992;2022-11-11T04:35:56;100778.15;;;7.52;83.43
56821;BME280;42702;50.178;20.992;2022-11-11T04:38:43;100787.10;;;7.55;83.48
56821;BME280;42702;50.178;20.992;2022-11-11T04:41:48;100796.26;;;7.54;83.00
56821;BME280;42702;50.178;20.992;2022-11-11T04:44:56;100795.12;;;7.56;83.23
56821;BME280;42702;50.178;20.992;2022-11-11T04:48:08;100791.38;;;7.64;82.65
56821;BME280;42702;50.178;20.992;2022-11-11T04:50:55;100790.27;;;7.62;83.02
56821;BME280;42702;50.178;20.992;2022-11-11T04:53:42;100791.94;;;7.59;83.14
56821;BME280;42702;50.178;20.992;2022-11-11T04:56:29;100785.13;;;7.58;83.22
56821;BME280;42702;50.178;20.992;2022-11-11T04:59:36;100791.27;;;7.60;83.39
56821;BME280;42702;50.178;20.992;2022-11-11T05:02:23;100793.19;;;7.67;83.28
56821;BME280;42702;50.178;20.992;2022-11-11T05:05:29;100794.67;;;7.70;82.83
56821;BME280;42702;50.178;20.992;2022-11-11T05:08:46;100798.46;;;7.69;82.97
56821;BME280;42702;50.178;20.992;2022-11-11T05:11:43;100799.19;;;7.70;83.00
56821;BME280;42702;50.178;20.992;2022-11-11T05:14:30;100802.14;;;7.70;83.14
56821;BME280;42702;50.178;20.992;2022-11-11T05:17:36;100802.23;;;7.68;83.07
56821;BME280;42702;50.178;20.992;2022-11-11T05:21:00;100804.28;;;7.66;83.05
56821;BME280;42702;50.178;20.992;2022-11-11T05:24:06;100804.34;;;7.68;82.58
56821;BME280;42702;50.178;20.992;2022-11-11T05:27:12;100807.20;;;7.65;82.86
56821;BME280;42702;50.178;20.992;2022-11-11T05:29:59;100810.67;;;7.65;82.96
56821;BME280;42702;50.178;20.992;2022-11-11T05:32:45;100816.14;;;7.68;83.05
56821;BME280;42702;50.178;20.992;2022-11-11T05:35:33;100821.23;;;7.70;83.04
56821;BME280;42702;50.178;20.992;2022-11-11T05:38:21;100818.52;;;7.72;83.09
56821;BME280;42702;50.178;20.992;2022-11-11T05:41:08;100818.75;;;7.80;82.66
56821;BME280;42702;50.178;20.992;2022-11-11T05:43:55;100827.39;;;7.78;82.52
56821;BME280;42702;50.178;20.992;2022-11-11T05:46:42;100832.52;;;7.76;83.00
56821;BME280;42702;50.178;20.992;2022-11-11T05:49:29;100832.60;;;7.78;82.90
56821;BME280;42702;50.178;20.992;2022-11-11T05:52:17;100828.88;;;7.76;82.87
56821;BME280;42702;50.178;20.992;2022-11-11T05:55:05;100822.41;;;7.74;82.92
56821;BME280;42702;50.178;20.992;2022-11-11T05:57:51;100823.95;;;7.79;82.94
56821;BME280;42702;50.178;20.992;2022-11-11T06:00:38;100825.18;;;7.80;82.72
56821;BME280;42702;50.178;20.992;2022-11-11T06:03:25;100827.77;;;7.79;82.65
56821;BME280;42702;50.178;20.992;2022-11-11T06:06:12;100842.55;;;7.80;83.25
56821;BME280;42702;50.178;20.992;2022-11-11T06:09:00;100841.66;;;7.79;82.96
56821;BME280;42702;50.178;20.992;2022-11-11T06:11:46;100840.73;;;7.84;82.95
56821;BME280;42702;50.178;20.992;2022-11-11T06:14:33;100840.13;;;7.87;82.50
56821;BME280;42702;50.178;20.992;2022-11-11T06:17:20;100852.27;;;7.87;82.84
56821;BME280;42702;50.178;20.992;2022-11-11T06:20:07;100855.11;;;7.88;83.12
56821;BME280;42702;50.178;20.992;2022-11-11T06:22:55;100848.44;;;7.91;82.98
56821;BME280;42702;50.178;20.992;2022-11-11T06:25:43;100850.77;;;7.94;83.07
56821;BME280;42702;50.178;20.992;2022-11-11T06:28:53;100845.59;;;8.01;82.87
56821;BME280;42702;50.178;20.992;2022-11-11T06:31:41;100853.37;;;8.06;82.81
56821;BME280;42702;50.178;20.992;2022-11-11T06:34:28;100856.20;;;8.07;82.68
56821;BME280;42702;50.178;20.992;2022-11-11T06:37:15;100859.67;;;8.07;83.16
56821;BME280;42702;50.178;20.992;2022-11-11T06:40:03;100868.77;;;8.09;82.89
56821;BME280;42702;50.178;20.992;2022-11-11T06:42:49;100867.78;;;8.11;82.72
56821;BME280;42702;50.178;20.992;2022-11-11T06:45:37;100865.07;;;8.13;82.62
56821;BME280;42702;50.178;20.992;2022-11-11T06:48:25;100859.32;;;8.19;82.39
56821;BME280;42702;50.178;20.992;2022-11-11T06:51:13;100851.98;;;8.17;82.82
56821;BME280;42702;50.178;20.992;2022-11-11T06:54:00;100850.77;;;8.17;82.73
56821;BME280;42702;50.178;20.992;2022-11-11T06:56:47;100848.17;;;8.17;82.98
56821;BME280;42702;50.178;20.992;2022-11-11T06:59:34;100848.75;;;8.19;82.71
56821;BME280;42702;50.178;20.992;2022-11-11T07:02:21;100854.31;;;8.26;82.53
56821;BME280;42702;50.178;20.992;2022-11-11T07:05:08;100854.15;;;8.26;82.50
56821;BME280;42702;50.178;20.992;2022-11-11T07:07:55;100857.46;;;8.26;82.35
56821;BME280;42702;50.178;20.992;2022-11-11T07:10:47;100857.48;;;8.27;82.81
56821;BME280;42702;50.178;20.992;2022-11-11T07:13:34;100853.36;;;8.29;82.36
56821;BME280;42702;50.178;20.992;2022-11-11T07:16:21;100852.45;;;8.33;81.79
56821;BME280;42702;50.178;20.992;2022-11-11T07:19:07;100856.26;;;8.33;82.13
56821;BME280;42702;50.178;20.992;2022-11-11T07:21:54;100861.95;;;8.32;82.32
56821;BME280;42702;50.178;20.992;2022-11-11T07:24:41;100863.70;;;8.32;82.52
56821;BME280;42702;50.178;20.992;2022-11-11T07:27:28;100865.34;;;8.34;82.40
56821;BME280;42702;50.178;20.992;2022-11-11T07:30:15;100862.91;;;8.41;82.07
56821;BME280;42702;50.178;20.992;2022-11-11T07:33:03;100859.20;;;8.44;82.25
56821;BME280;42702;50.178;20.992;2022-11-11T07:35:49;100856.58;;;8.43;82.21
56821;BME280;42702;50.178;20.992;2022-11-11T07:38:36;100847.44;;;8.46;82.36
56821;BME280;42702;50.178;20.992;2022-11-11T07:41:23;100842.25;;;8.46;81.96
56821;BME280;42702;50.178;20.992;2022-11-11T07:44:10;100848.60;;;8.49;81.84
56821;BME280;42702;50.178;20.992;2022-11-11T07:46:57;100854.80;;;8.54;81.76
56821;BME280;42702;50.178;20.992;2022-11-11T07:49:44;100850.88;;;8.57;81.99
56821;BME280;42702;50.178;20.992;2022-11-11T07:52:31;100853.64;;;8.56;81.72
56821;BME280;42702;50.178;20.992;2022-11-11T07:55:18;100851.03;;;8.56;82.29
56821;BME280;42702;50.178;20.992;2022-11-11T07:58:05;100843.80;;;8.59;81.80
56821;BME280;42702;50.178;20.992;2022-11-11T08:00:53;100837.70;;;8.64;81.79
56821;BME280;42702;50.178;20.992;2022-11-11T08:03:40;100837.20;;;8.72;81.50
56821;BME280;42702;50.178;20.992;2022-11-11T08:06:35;100835.50;;;8.79;81.60
56821;BME280;42702;50.178;20.992;2022-11-11T08:09:22;100830.25;;;8.85;81.81
56821;BME280;42702;50.178;20.992;2022-11-11T08:12:09;100826.77;;;8.92;81.71
56821;BME280;42702;50.178;20.992;2022-11-11T08:15:14;100833.97;;;9.01;81.53
56821;BME280;42702;50.178;20.992;2022-11-11T08:18:01;100833.09;;;9.08;81.42
56821;BME280;42702;50.178;20.992;2022-11-11T08:20:48;100832.80;;;9.10;81.20
56821;BME280;42702;50.178;20.992;2022-11-11T08:23:40;100831.70;;;9.15;81.35
56821;BME280;42702;50.178;20.992;2022-11-11T08:26:47;100825.05;;;9.20;81.15
56821;BME280;42702;50.178;20.992;2022-11-11T08:29:34;100827.91;;;9.23;80.93
56821;BME280;42702;50.178;20.992;2022-11-11T08:32:21;100828.09;;;9.29;80.64
56821;BME280;42702;50.178;20.992;2022-11-11T08:35:08;100830.17;;;9.38;80.26
56821;BME280;42702;50.178;20.992;2022-11-11T08:37:54;100832.46;;;9.39;80.60
56821;BME280;42702;50.178;20.992;2022-11-11T08:40:41;100832.89;;;9.42;80.56
56821;BME280;42702;50.178;20.992;2022-11-11T08:43:28;100840.12;;;9.46;80.70
56821;BME280;42702;50.178;20.992;2022-11-11T08:46:23;100837.80;;;9.51;79.88
56821;BME280;42702;50.178;20.992;2022-11-11T08:49:10;100838.99;;;9.57;79.72
56821;BME280;42702;50.178;20.992;2022-11-11T08:51:58;100843.70;;;9.57;79.40
56821;BME280;42702;50.178;20.992;2022-11-11T08:54:45;100836.00;;;9.56;79.71
56821;BME280;42702;50.178;20.992;2022-11-11T08:57:32;100839.72;;;9.59;79.99
56821;BME280;42702;50.178;20.992;2022-11-11T09:00:19;100842.64;;;9.64;79.78
56821;BME280;42702;50.178;20.992;2022-11-11T09:03:08;100850.15;;;9.73;79.42
56821;BME280;42702;50.178;20.992;2022-11-11T09:05:56;100850.50;;;9.73;79.00
56821;BME280;42702;50.178;20.992;2022-11-11T09:08:43;100847.26;;;9.76;79.67
56821;BME280;42702;50.178;20.992;2022-11-11T09:11:30;100850.80;;;9.78;79.33
56821;BME280;42702;50.178;20.992;2022-11-11T09:14:21;100853.85;;;9.82;79.18
56821;BME280;42702;50.178;20.992;2022-11-11T09:17:08;100849.29;;;9.89;78.65
56821;BME280;42702;50.178;20.992;2022-11-11T09:19:55;100841.10;;;9.88;78.60
56821;BME280;42702;50.178;20.992;2022-11-11T09:22:43;100840.57;;;9.88;78.84
56821;BME280;42702;50.178;20.992;2022-11-11T09:25:30;100840.83;;;9.92;78.97
56821;BME280;42702;50.178;20.992;2022-11-11T09:28:17;100831.34;;;9.96;78.87
56821;BME280;42702;50.178;20.992;2022-11-11T09:31:03;100830.55;;;10.08;78.25
56821;BME280;42702;50.178;20.992;2022-11-11T09:34:10;100823.36;;;10.14;78.60
56821;BME280;42702;50.178;20.992;2022-11-11T09:36:57;100821.52;;;10.17;78.52
56821;BME280;42702;50.178;20.992;2022-11-11T09:39:44;100820.20;;;10.21;77.99
56821;BME280;42702;50.178;20.992;2022-11-11T09:42:39;100817.64;;;10.24;78.36
56821;BME280;42702;50.178;20.992;2022-11-11T09:51:59;100809.60;;;10.48;77.51
56821;BME280;42702;50.178;20.992;2022-11-11T09:55:00;100807.09;;;10.53;77.85
56821;BME280;42702;50.178;20.992;2022-11-11T09:57:53;100815.27;;;10.61;77.97
56821;BME280;42702;50.178;20.992;2022-11-11T10:00:45;100819.44;;;10.70;77.55
56821;BME280;42702;50.178;20.992;2022-11-11T10:03:39;100818.34;;;10.76;77.54
56821;BME280;42702;50.178;20.992;2022-11-11T10:06:32;100824.27;;;10.86;76.98
56821;BME280;42702;50.178;20.992;2022-11-11T10:09:43;100826.70;;;10.96;77.07
56821;BME280;42702;50.178;20.992;2022-11-11T10:12:41;100826.21;;;10.97;77.16
56821;BME280;42702;50.178;20.992;2022-11-11T10:15:34;100824.86;;;11.00;76.88
56821;BME280;42702;50.178;20.992;2022-11-11T10:22:39;100828.36;;;11.11;75.71
56821;BME280;42702;50.178;20.992;2022-11-11T10:25:28;100829.55;;;11.19;75.21
56821;BME280;42702;50.178;20.992;2022-11-11T10:28:18;100830.19;;;11.27;76.03
56821;BME280;42702;50.178;20.992;2022-11-11T10:31:13;100829.46;;;11.35;75.88
56821;BME280;42702;50.178;20.992;2022-11-11T10:34:04;100827.30;;;11.41;75.95
56821;BME280;42702;50.178;20.992;2022-11-11T10:36:55;100830.86;;;11.47;75.69
56821;BME280;42702;50.178;20.992;2022-11-11T10:40:06;100830.64;;;11.55;75.24
56821;BME280;42702;50.178;20.992;2022-11-11T10:42:58;100830.79;;;11.65;75.08
56821;BME280;42702;50.178;20.992;2022-11-11T10:46:13;100815.94;;;11.65;74.71
56821;BME280;42702;50.178;20.992;2022-11-11T10:49:13;100813.33;;;11.66;74.23
56821;BME280;42702;50.178;20.992;2022-11-11T10:52:11;100816.37;;;11.70;74.83
56821;BME280;42702;50.178;20.992;2022-11-11T10:55:05;100809.79;;;11.75;73.41
56821;BME280;42702;50.178;20.992;2022-11-11T10:58:08;100809.69;;;11.79;73.05
56821;BME280;42702;50.178;20.992;2022-11-11T11:00:57;100812.03;;;11.85;72.97
56821;BME280;42702;50.178;20.992;2022-11-11T11:03:49;100805.70;;;11.81;72.45
56821;BME280;42702;50.178;20.992;2022-11-11T11:06:42;100802.84;;;11.76;72.43
56821;BME280;42702;50.178;20.992;2022-11-11T11:10:02;100800.54;;;11.75;73.54
56821;BME280;42702;50.178;20.992;2022-11-11T11:12:57;100802.64;;;11.76;72.99
56821;BME280;42702;50.178;20.992;2022-11-11T11:15:49;100797.98;;;11.79;73.26
56821;BME280;42702;50.178;20.992;2022-11-11T11:18:39;100796.54;;;11.88;72.78
56821;BME280;42702;50.178;20.992;2022-11-11T11:21:59;100797.17;;;11.95;72.76
56821;BME280;42702;50.178;20.992;2022-11-11T11:24:46;100797.59;;;12.00;71.87
56821;BME280;42702;50.178;20.992;2022-11-11T11:27:33;100792.23;;;12.04;72.55
56821;BME280;42702;50.178;20.992;2022-11-11T11:30:23;100791.23;;;12.09;72.72
56821;BME280;42702;50.178;20.992;2022-11-11T11:33:10;100784.27;;;12.12;72.37
56821;BME280;42702;50.178;20.992;2022-11-11T11:36:14;100780.68;;;12.18;71.84
56821;BME280;42702;50.178;20.992;2022-11-11T11:39:01;100773.80;;;12.27;70.34
56821;BME280;42702;50.178;20.992;2022-11-11T11:41:48;100772.73;;;12.25;70.06
56821;BME280;42702;50.178;20.992;2022-11-11T11:44:37;100775.16;;;12.24;70.22
56821;BME280;42702;50.178;20.992;2022-11-11T11:50:46;100757.87;;;12.26;70.19
56821;BME280;42702;50.178;20.992;2022-11-11T11:57:02;100757.95;;;12.33;70.49
56821;BME280;42702;50.178;20.992;2022-11-11T12:03:41;100768.17;;;12.41;68.64
56821;BME280;42702;50.178;20.992;2022-11-11T12:07:09;100769.19;;;12.36;68.98
56821;BME280;42702;50.178;20.992;2022-11-11T12:10:16;100770.86;;;12.30;69.00
56821;BME280;42702;50.178;20.992;2022-11-11T12:16:34;100755.72;;;12.20;69.32
56821;BME280;42702;50.178;20.992;2022-11-11T12:19:52;100752.84;;;12.14;68.89
56821;BME280;42702;50.178;20.992;2022-11-11T12:29:46;100749.14;;;12.11;69.29
56821;BME280;42702;50.178;20.992;2022-11-11T12:44:56;100741.21;;;12.06;70.48
56821;BME280;42702;50.178;20.992;2022-11-11T12:53:39;100739.80;;;12.04;69.65
56821;BME280;42702;50.178;20.992;2022-11-11T13:09:25;100721.42;;;12.02;70.52
56821;BME280;42702;50.178;20.992;2022-11-11T13:12:23;100730.83;;;12.00;70.83
56821;BME280;42702;50.178;20.992;2022-11-11T13:15:22;100734.45;;;11.95;70.77
56821;BME280;42702;50.178;20.992;2022-11-11T13:21:33;100745.20;;;11.90;71.41
56821;BME280;42702;50.178;20.992;2022-11-11T13:24:22;100741.54;;;11.90;71.02
56821;BME280;42702;50.178;20.992;2022-11-11T13:33:51;100742.09;;;11.91;71.26
56821;BME280;42702;50.178;20.992;2022-11-11T13:36:50;100742.95;;;11.90;71.14
56821;BME280;42702;50.178;20.992;2022-11-11T13:39:43;100739.64;;;11.91;71.41
56821;BME280;42702;50.178;20.992;2022-11-11T13:42:37;100740.33;;;11.91;71.39
56821;BME280;42702;50.178;20.992;2022-11-11T13:45:29;100739.44;;;11.89;71.37
56821;BME280;42702;50.178;20.992;2022-11-11T13:48:23;100738.17;;;11.89;71.39
56821;BME280;42702;50.178;20.992;2022-11-11T13:51:25;100737.29;;;11.87;71.50
56821;BME280;42702;50.178;20.992;2022-11-11T13:57:20;100730.55;;;11.91;71.20
56821;BME280;42702;50.178;20.992;2022-11-11T14:09:03;100725.20;;;11.84;71.42
56821;BME280;42702;50.178;20.992;2022-11-11T14:12:20;100725.36;;;11.83;71.50
56821;BME280;42702;50.178;20.992;2022-11-11T14:15:47;100728.13;;;11.80;71.61
56821;BME280;42702;50.178;20.992;2022-11-11T14:18:37;100735.59;;;11.76;71.59
56821;BME280;42702;50.178;20.992;2022-11-11T14:21:49;100733.63;;;11.73;71.66
56821;BME280;42702;50.178;20.992;2022-11-11T14:24:46;100726.11;;;11.73;71.52
56821;BME280;42702;50.178;20.992;2022-11-11T14:27:33;100732.40;;;11.73;71.44
56821;BME280;42702;50.178;20.992;2022-11-11T14:30:35;100732.71;;;11.70;71.56
56821;BME280;42702;50.178;20.992;2022-11-11T14:33:46;100729.88;;;11.67;71.72
56821;BME280;42702;50.178;20.992;2022-11-11T14:36:49;100734.55;;;11.64;71.70
56821;BME280;42702;50.178;20.992;2022-11-11T14:51:39;100742.60;;;11.52;71.85
56821;BME280;42702;50.178;20.992;2022-11-11T14:57:36;100742.50;;;11.46;71.94
56821;BME280;42702;50.178;20.992;2022-11-11T15:00:27;100744.55;;;11.43;72.19
56821;BME280;42702;50.178;20.992;2022-11-11T15:03:27;100747.30;;;11.39;72.09
56821;BME280;42702;50.178;20.992;2022-11-11T15:06:22;100741.48;;;11.35;72.05
56821;BME280;42702;50.178;20.992;2022-11-11T15:18:59;100728.95;;;11.26;72.15
56821;BME280;42702;50.178;20.992;2022-11-11T15:27:54;100734.20;;;11.15;72.38
56821;BME280;42702;50.178;20.992;2022-11-11T15:33:59;100729.61;;;11.12;72.36
56821;BME280;42702;50.178;20.992;2022-11-11T15:37:04;100720.58;;;11.14;72.46
56821;BME280;42702;50.178;20.992;2022-11-11T15:39:54;100725.92;;;11.10;72.52
56821;BME280;42702;50.178;20.992;2022-11-11T15:42:43;100727.98;;;11.07;72.83
56821;BME280;42702;50.178;20.992;2022-11-11T15:45:36;100728.45;;;11.03;72.58
56821;BME280;42702;50.178;20.992;2022-11-11T15:48:29;100726.11;;;11.00;72.81
56821;BME280;42702;50.178;20.992;2022-11-11T15:51:30;100719.75;;;10.94;72.78
56821;BME280;42702;50.178;20.992;2022-11-11T15:54:19;100717.39;;;10.90;72.99
56821;BME280;42702;50.178;20.992;2022-11-11T15:57:28;100725.13;;;10.93;72.91
56821;BME280;42702;50.178;20.992;2022-11-11T16:00:33;100723.19;;;10.91;72.85
56821;BME280;42702;50.178;20.992;2022-11-11T16:03:25;100729.19;;;10.85;72.97
56821;BME280;42702;50.178;20.992;2022-11-11T16:06:15;100730.89;;;10.83;73.16
56821;BME280;42702;50.178;20.992;2022-11-11T16:09:03;100731.02;;;10.80;73.28
56821;BME280;42702;50.178;20.992;2022-11-11T16:11:51;100733.08;;;10.77;73.26
56821;BME280;42702;50.178;20.992;2022-11-11T16:14:41;100730.41;;;10.74;73.38
56821;BME280;42702;50.178;20.992;2022-11-11T16:17:40;100729.06;;;10.77;73.38
56821;BME280;42702;50.178;20.992;2022-11-11T16:20:34;100726.66;;;10.79;73.09
56821;BME280;42702;50.178;20.992;2022-11-11T16:23:25;100726.23;;;10.75;73.19
56821;BME280;42702;50.178;20.992;2022-11-11T16:26:14;100728.79;;;10.72;73.21
56821;BME280;42702;50.178;20.992;2022-11-11T16:29:01;100730.64;;;10.68;73.21
56821;BME280;42702;50.178;20.992;2022-11-11T16:31:48;100731.98;;;10.63;73.36
56821;BME280;42702;50.178;20.992;2022-11-11T16:34:38;100736.50;;;10.63;73.48
56821;BME280;42702;50.178;20.992;2022-11-11T16:37:27;100737.27;;;10.68;73.23
56821;BME280;42702;50.178;20.992;2022-11-11T16:43:22;100740.48;;;10.63;73.57
56821;BME280;42702;50.178;20.992;2022-11-11T16:46:15;100730.54;;;10.62;73.44
56821;BME280;42702;50.178;20.992;2022-11-11T16:49:28;100727.53;;;10.59;73.64
56821;BME280;42702;50.178;20.992;2022-11-11T16:52:20;100719.30;;;10.56;73.58
56821;BME280;42702;50.178;20.992;2022-11-11T16:55:33;100709.63;;;10.62;73.55
56821;BME280;42702;50.178;20.992;2022-11-11T16:58:21;100706.15;;;10.63;73.58
56821;BME280;42702;50.178;20.992;2022-11-11T17:01:08;100705.59;;;10.61;73.66
56821;BME280;42702;50.178;20.992;2022-11-11T17:03:58;100710.12;;;10.60;73.73